sensor_id;sensor_type;location;lat;lon;timestamp;temperature;humidity
15003;DHT22;7597;53.590;10.020;2022-11-23T00:01:19;2.10;99.90
15003;DHT22;7597;53.590;10.020;2022-11-23T00:03:48;2.20;99.90
15003;DHT22;7597;53.590;10.020;2022-11-23T00:06:13;2.10;99.90
15003;DHT22;7597;53.590;10.020;2022-11-23T00:08:39;2.20;99.90
15003;DHT22;7597;53.590;10.020;2022-11-23T00:11:06;2.20;99.90
15003;DHT22;7597;53.590;10.020;2022-11-23T00:13:33;2.20;99.90
15003;DHT22;7597;53.590;10.020;2022-11-23T00:16:04;2.20;99.90
15003;DHT22;7597;53.590;10.020;2022-11-23T00:18:30;2.20;99.90
15003;DHT22;7597;53.590;10.020;2022-11-23T00:20:57;2.20;99.90
15003;DHT22;7597;53.590;10.020;2022-11-23T00:23:24;2.20;99.90
15003;DHT22;7597;53.590;10.020;2022-11-23T00:25:50;2.20;99.90
15003;DHT22;7597;53.590;10.020;2022-11-23T00:28:17;2.20;99.90
15003;DHT22;7597;53.590;10.020;2022-11-23T00:30:47;2.20;99.90
15003;DHT22;7597;53.590;10.020;2022-11-23T00:33:11;2.30;99.90
15003;DHT22;7597;53.590;10.020;2022-11-23T00:35:38;2.40;99.90
15003;DHT22;7597;53.590;10.020;2022-11-23T00:38:04;2.30;99.90
15003;DHT22;7597;53.590;10.020;2022-11-23T00:40:31;2.30;99.90
15003;DHT22;7597;53.590;10.020;2022-11-23T00:42:57;2.40;99.90
15003;DHT22;7597;53.590;10.020;2022-11-23T00:45:24;2.40;99.90
15003;DHT22;7597;53.590;10.020;2022-11-23T00:47:51;2.40;99.90
15003;DHT22;7597;53.590;10.020;2022-11-23T00:50:18;2.50;99.90
15003;DHT22;7597;53.590;10.020;2022-11-23T00:52:45;2.40;99.90
15003;DHT22;7597;53.590;10.020;2022-11-23T00:55:11;2.50;99.90
15003;DHT22;7597;53.590;10.020;2022-11-23T00:57:38;2.50;99.90
15003;DHT22;7597;53.590;10.020;2022-11-23T01:00:06;2.50;99.90
15003;DHT22;7597;53.590;10.020;2022-11-23T01:02:34;2.50;99.90
15003;DHT22;7597;53.590;10.020;2022-11-23T01:05:01;2.50;99.90
15003;DHT22;7597;53.590;10.020;2022-11-23T01:07:27;2.50;99.90
15003;DHT22;7597;53.590;10.020;2022-11-23T01:09:53;2.50;99.90
15003;DHT22;7597;53.590;10.020;2022-11-23T01:12:20;2.60;99.90
15003;DHT22;7597;53.590;10.020;2022-11-23T01:14:47;2.60;99.90
15003;DHT22;7597;53.590;10.020;2022-11-23T01:17:13;2.60;99.90
15003;DHT22;7597;53.590;10.020;2022-11-23T01:19:40;2.60;99.90
15003;DHT22;7597;53.590;10.020;2022-11-23T01:22:07;2.60;99.90
15003;DHT22;7597;53.590;10.020;2022-11-23T01:24:34;2.60;99.90
15003;DHT22;7597;53.590;10.020;2022-11-23T01:27:01;2.60;99.90
15003;DHT22;7597;53.590;10.020;2022-11-23T01:29:28;2.60;99.90
15003;DHT22;7597;53.590;10.020;2022-11-23T01:31:55;3.00;99.90
15003;DHT22;7597;53.590;10.020;2022-11-23T01:34:23;2.60;99.90
15003;DHT22;7597;53.590;10.020;2022-11-23T01:36:49;2.60;99.90
15003;DHT22;7597;53.590;10.020;2022-11-23T01:39:16;2.60;99.90
15003;DHT22;7597;53.590;10.020;2022-11-23T01:41:43;3.10;99.90
15003;DHT22;7597;53.590;10.020;2022-11-23T01:44:21;2.70;99.90
15003;DHT22;7597;53.590;10.020;2022-11-23T01:46:47;2.70;99.90
15003;DHT22;7597;53.590;10.020;2022-11-23T01:49:14;2.70;99.90
15003;DHT22;7597;53.590;10.020;2022-11-23T01:51:42;2.70;99.90
15003;DHT22;7597;53.590;10.020;2022-11-23T01:54:27;2.70;99.90
15003;DHT22;7597;53.590;10.020;2022-11-23T01:56:53;2.70;99.90
15003;DHT22;7597;53.590;10.020;2022-11-23T01:59:20;2.70;99.90
15003;DHT22;7597;53.590;10.020;2022-11-23T02:01:47;2.70;99.90
15003;DHT22;7597;53.590;10.020;2022-11-23T02:04:16;2.70;99.90
15003;DHT22;7597;53.590;10.020;2022-11-23T02:06:41;2.70;99.90
15003;DHT22;7597;53.590;10.020;2022-11-23T02:09:07;2.80;99.90
15003;DHT22;7597;53.590;10.020;2022-11-23T02:11:34;2.80;99.90
15003;DHT22;7597;53.590;10.020;2022-11-23T02:14:01;2.80;99.90
15003;DHT22;7597;53.590;10.020;2022-11-23T02:16:28;2.80;99.90
15003;DHT22;7597;53.590;10.020;2022-11-23T02:18:54;2.80;99.90
15003;DHT22;7597;53.590;10.020;2022-11-23T02:21:21;2.80;99.90
15003;DHT22;7597;53.590;10.020;2022-11-23T02:23:59;2.80;99.90
15003;DHT22;7597;53.590;10.020;2022-11-23T02:26:27;2.90;99.90
15003;DHT22;7597;53.590;10.020;2022-11-23T02:29:02;2.90;99.90
15003;DHT22;7597;53.590;10.020;2022-11-23T02:31:27;2.80;99.90
15003;DHT22;7597;53.590;10.020;2022-11-23T02:33:54;2.80;99.90
15003;DHT22;7597;53.590;10.020;2022-11-23T02:36:27;3.40;99.90
15003;DHT22;7597;53.590;10.020;2022-11-23T02:38:52;2.80;99.90
15003;DHT22;7597;53.590;10.020;2022-11-23T02:41:19;2.90;99.90
15003;DHT22;7597;53.590;10.020;2022-11-23T02:43:46;2.90;99.90
15003;DHT22;7597;53.590;10.020;2022-11-23T02:46:12;2.90;99.90
15003;DHT22;7597;53.590;10.020;2022-11-23T02:48:39;2.90;99.90
15003;DHT22;7597;53.590;10.020;2022-11-23T02:51:05;2.90;99.90
15003;DHT22;7597;53.590;10.020;2022-11-23T02:53:33;3.40;99.90
15003;DHT22;7597;53.590;10.020;2022-11-23T02:56:00;2.90;99.90
15003;DHT22;7597;53.590;10.020;2022-11-23T02:58:26;3.00;99.90
15003;DHT22;7597;53.590;10.020;2022-11-23T03:00:53;3.10;99.90
15003;DHT22;7597;53.590;10.020;2022-11-23T03:03:20;3.00;99.90
15003;DHT22;7597;53.590;10.020;2022-11-23T03:05:46;3.00;99.90
15003;DHT22;7597;53.590;10.020;2022-11-23T03:08:13;3.00;99.90
15003;DHT22;7597;53.590;10.020;2022-11-23T03:10:39;3.00;99.90
15003;DHT22;7597;53.590;10.020;2022-11-23T03:13:06;3.10;99.90
15003;DHT22;7597;53.590;10.020;2022-11-23T03:15:33;3.10;99.90
15003;DHT22;7597;53.590;10.020;2022-11-23T03:17:59;3.40;99.90
15003;DHT22;7597;53.590;10.020;2022-11-23T03:20:26;3.10;99.90
15003;DHT22;7597;53.590;10.020;2022-11-23T03:22:53;3.10;99.90
15003;DHT22;7597;53.590;10.020;2022-11-23T03:25:20;3.10;99.90
15003;DHT22;7597;53.590;10.020;2022-11-23T03:27:46;3.20;99.90
15003;DHT22;7597;53.590;10.020;2022-11-23T03:30:13;3.20;99.90
15003;DHT22;7597;53.590;10.020;2022-11-23T03:32:40;3.20;99.90
15003;DHT22;7597;53.590;10.020;2022-11-23T03:35:07;3.20;99.90
15003;DHT22;7597;53.590;10.020;2022-11-23T03:37:34;3.20;99.90
15003;DHT22;7597;53.590;10.020;2022-11-23T03:40:00;3.20;99.90
15003;DHT22;7597;53.590;10.020;2022-11-23T03:42:27;3.20;99.90
15003;DHT22;7597;53.590;10.020;2022-11-23T03:44:54;3.20;99.90
15003;DHT22;7597;53.590;10.020;2022-11-23T03:47:21;3.20;99.90
15003;DHT22;7597;53.590;10.020;2022-11-23T03:49:48;3.20;99.90
15003;DHT22;7597;53.590;10.020;2022-11-23T03:52:14;3.20;99.90
15003;DHT22;7597;53.590;10.020;2022-11-23T03:54:41;3.30;99.90
15003;DHT22;7597;53.590;10.020;2022-11-23T03:57:08;3.20;99.90
15003;DHT22;7597;53.590;10.020;2022-11-23T03:59:34;3.50;99.90
15003;DHT22;7597;53.590;10.020;2022-11-23T04:02:01;3.20;99.90
15003;DHT22;7597;53.590;10.020;2022-11-23T04:04:28;3.20;99.90
15003;DHT22;7597;53.590;10.020;2022-11-23T04:06:54;3.20;99.90
15003;DHT22;7597;53.590;10.020;2022-11-23T04:09:21;3.30;99.90
15003;DHT22;7597;53.590;10.020;2022-11-23T04:11:48;3.30;99.90
15003;DHT22;7597;53.590;10.020;2022-11-23T04:14:14;3.30;99.90
15003;DHT22;7597;53.590;10.020;2022-11-23T04:16:42;3.40;99.90
15003;DHT22;7597;53.590;10.020;2022-11-23T04:19:08;3.40;99.90
15003;DHT22;7597;53.590;10.020;2022-11-23T04:21:35;3.50;99.90
15003;DHT22;7597;53.590;10.020;2022-11-23T04:24:02;3.70;99.90
15003;DHT22;7597;53.590;10.020;2022-11-23T04:26:28;3.50;99.90
15003;DHT22;7597;53.590;10.020;2022-11-23T04:28:55;3.60;99.90
15003;DHT22;7597;53.590;10.020;2022-11-23T04:31:22;3.60;99.90
15003;DHT22;7597;53.590;10.020;2022-11-23T04:33:50;3.60;99.90
15003;DHT22;7597;53.590;10.020;2022-11-23T04:36:16;3.60;99.90
15003;DHT22;7597;53.590;10.020;2022-11-23T04:38:43;3.70;99.90
15003;DHT22;7597;53.590;10.020;2022-11-23T04:41:11;3.70;99.90
15003;DHT22;7597;53.590;10.020;2022-11-23T04:43:38;3.50;99.90
15003;DHT22;7597;53.590;10.020;2022-11-23T04:46:05;3.70;99.90
15003;DHT22;7597;53.590;10.020;2022-11-23T04:48:31;3.90;99.90
15003;DHT22;7597;53.590;10.020;2022-11-23T04:50:58;3.70;99.90
15003;DHT22;7597;53.590;10.020;2022-11-23T04:53:26;3.70;99.90
15003;DHT22;7597;53.590;10.020;2022-11-23T04:55:53;3.80;99.90
15003;DHT22;7597;53.590;10.020;2022-11-23T04:58:20;3.80;99.90
15003;DHT22;7597;53.590;10.020;2022-11-23T05:00:46;3.80;99.90
15003;DHT22;7597;53.590;10.020;2022-11-23T05:03:13;3.80;99.90
15003;DHT22;7597;53.590;10.020;2022-11-23T05:05:40;3.80;99.90
15003;DHT22;7597;53.590;10.020;2022-11-23T05:08:07;3.80;99.90
15003;DHT22;7597;53.590;10.020;2022-11-23T05:10:33;3.80;99.90
15003;DHT22;7597;53.590;10.020;2022-11-23T05:13:00;3.80;99.90
15003;DHT22;7597;53.590;10.020;2022-11-23T05:15:26;3.80;99.40
15003;DHT22;7597;53.590;10.020;2022-11-23T05:17:53;3.80;99.80
15003;DHT22;7597;53.590;10.020;2022-11-23T05:20:20;3.80;99.20
15003;DHT22;7597;53.590;10.020;2022-11-23T05:22:46;3.80;97.50
15003;DHT22;7597;53.590;10.020;2022-11-23T05:25:13;3.80;97.90
15003;DHT22;7597;53.590;10.020;2022-11-23T05:27:40;3.80;99.40
15003;DHT22;7597;53.590;10.020;2022-11-23T05:30:07;3.80;99.90
15003;DHT22;7597;53.590;10.020;2022-11-23T05:32:34;4.20;99.90
15003;DHT22;7597;53.590;10.020;2022-11-23T05:35:01;4.00;99.90
15003;DHT22;7597;53.590;10.020;2022-11-23T05:37:27;3.70;99.90
15003;DHT22;7597;53.590;10.020;2022-11-23T05:39:54;3.70;99.90
15003;DHT22;7597;53.590;10.020;2022-11-23T05:42:21;3.60;99.90
15003;DHT22;7597;53.590;10.020;2022-11-23T05:44:47;3.60;99.90
15003;DHT22;7597;53.590;10.020;2022-11-23T05:47:14;3.60;99.90
15003;DHT22;7597;53.590;10.020;2022-11-23T05:49:42;3.60;99.90
15003;DHT22;7597;53.590;10.020;2022-11-23T05:52:08;3.60;99.90
15003;DHT22;7597;53.590;10.020;2022-11-23T05:54:35;3.60;99.90
15003;DHT22;7597;53.590;10.020;2022-11-23T05:57:01;3.60;99.90
15003;DHT22;7597;53.590;10.020;2022-11-23T05:59:28;3.60;99.90
15003;DHT22;7597;53.590;10.020;2022-11-23T06:01:55;4.00;99.90
15003;DHT22;7597;53.590;10.020;2022-11-23T06:04:22;3.60;99.90
15003;DHT22;7597;53.590;10.020;2022-11-23T06:06:50;3.60;99.90
15003;DHT22;7597;53.590;10.020;2022-11-23T06:09:16;3.60;99.90
15003;DHT22;7597;53.590;10.020;2022-11-23T06:11:43;3.80;99.90
15003;DHT22;7597;53.590;10.020;2022-11-23T06:14:10;3.70;99.90
15003;DHT22;7597;53.590;10.020;2022-11-23T06:16:36;3.70;99.90
15003;DHT22;7597;53.590;10.020;2022-11-23T06:19:03;3.70;99.90
15003;DHT22;7597;53.590;10.020;2022-11-23T06:21:30;3.70;99.90
15003;DHT22;7597;53.590;10.020;2022-11-23T06:23:57;3.70;99.90
15003;DHT22;7597;53.590;10.020;2022-11-23T06:26:24;3.70;99.90
15003;DHT22;7597;53.590;10.020;2022-11-23T06:28:50;3.70;99.90
15003;DHT22;7597;53.590;10.020;2022-11-23T06:31:17;3.70;99.90
15003;DHT22;7597;53.590;10.020;2022-11-23T06:33:43;3.80;99.90
15003;DHT22;7597;53.590;10.020;2022-11-23T06:36:11;3.80;99.90
15003;DHT22;7597;53.590;10.020;2022-11-23T06:38:38;3.80;99.90
15003;DHT22;7597;53.590;10.020;2022-11-23T06:41:05;3.80;99.90
15003;DHT22;7597;53.590;10.020;2022-11-23T06:43:32;3.80;99.90
15003;DHT22;7597;53.590;10.020;2022-11-23T06:46:01;3.80;99.90
15003;DHT22;7597;53.590;10.020;2022-11-23T06:48:25;3.80;99.90
15003;DHT22;7597;53.590;10.020;2022-11-23T06:50:52;3.90;99.90
15003;DHT22;7597;53.590;10.020;2022-11-23T06:53:19;3.80;99.90
15003;DHT22;7597;53.590;10.020;2022-11-23T06:55:45;3.80;99.90
15003;DHT22;7597;53.590;10.020;2022-11-23T06:58:12;3.90;99.90
15003;DHT22;7597;53.590;10.020;2022-11-23T07:00:39;3.80;99.90
15003;DHT22;7597;53.590;10.020;2022-11-23T07:03:06;4.30;99.90
15003;DHT22;7597;53.590;10.020;2022-11-23T07:05:32;3.90;99.90
15003;DHT22;7597;53.590;10.020;2022-11-23T07:08:00;3.90;99.90
15003;DHT22;7597;53.590;10.020;2022-11-23T07:10:26;3.70;99.90
15003;DHT22;7597;53.590;10.020;2022-11-23T07:12:53;3.90;99.90
15003;DHT22;7597;53.590;10.020;2022-11-23T07:15:20;3.90;99.90
15003;DHT22;7597;53.590;10.020;2022-11-23T07:17:47;3.90;99.90
15003;DHT22;7597;53.590;10.020;2022-11-23T07:20:14;3.90;99.90
15003;DHT22;7597;53.590;10.020;2022-11-23T07:22:41;3.90;99.90
15003;DHT22;7597;53.590;10.020;2022-11-23T07:25:07;4.00;99.90
15003;DHT22;7597;53.590;10.020;2022-11-23T07:27:34;4.00;99.90
15003;DHT22;7597;53.590;10.020;2022-11-23T07:30:01;4.00;99.90
15003;DHT22;7597;53.590;10.020;2022-11-23T07:32:27;4.00;99.90
15003;DHT22;7597;53.590;10.020;2022-11-23T07:34:54;4.10;99.90
15003;DHT22;7597;53.590;10.020;2022-11-23T07:37:21;4.10;99.90
15003;DHT22;7597;53.590;10.020;2022-11-23T07:39:47;4.10;99.90
15003;DHT22;7597;53.590;10.020;2022-11-23T07:42:14;4.10;99.90
15003;DHT22;7597;53.590;10.020;2022-11-23T07:44:41;4.10;99.90
15003;DHT22;7597;53.590;10.020;2022-11-23T07:47:09;4.10;99.90
15003;DHT22;7597;53.590;10.020;2022-11-23T07:49:35;4.10;99.90
15003;DHT22;7597;53.590;10.020;2022-11-23T07:52:02;4.10;99.90
15003;DHT22;7597;53.590;10.020;2022-11-23T07:54:29;4.20;99.90
15003;DHT22;7597;53.590;10.020;2022-11-23T07:56:55;4.20;99.90
15003;DHT22;7597;53.590;10.020;2022-11-23T07:59:23;4.30;99.90
15003;DHT22;7597;53.590;10.020;2022-11-23T08:01:49;4.30;99.90
15003;DHT22;7597;53.590;10.020;2022-11-23T08:04:17;4.40;99.90
15003;DHT22;7597;53.590;10.020;2022-11-23T08:06:43;4.30;99.90
15003;DHT22;7597;53.590;10.020;2022-11-23T08:09:10;4.40;99.90
15003;DHT22;7597;53.590;10.020;2022-11-23T08:11:37;4.50;99.90
15003;DHT22;7597;53.590;10.020;2022-11-23T08:14:03;4.90;99.90
15003;DHT22;7597;53.590;10.020;2022-11-23T08:16:31;4.60;99.90
15003;DHT22;7597;53.590;10.020;2022-11-23T08:18:57;4.70;99.90
15003;DHT22;7597;53.590;10.020;2022-11-23T08:21:24;4.70;99.90
15003;DHT22;7597;53.590;10.020;2022-11-23T08:23:51;4.70;99.90
15003;DHT22;7597;53.590;10.020;2022-11-23T08:26:17;4.70;99.90
15003;DHT22;7597;53.590;10.020;2022-11-23T08:28:44;4.80;99.90
15003;DHT22;7597;53.590;10.020;2022-11-23T08:31:11;4.90;99.90
15003;DHT22;7597;53.590;10.020;2022-11-23T08:33:38;4.90;99.90
15003;DHT22;7597;53.590;10.020;2022-11-23T08:36:04;4.90;99.90
15003;DHT22;7597;53.590;10.020;2022-11-23T08:38:31;4.90;99.90
15003;DHT22;7597;53.590;10.020;2022-11-23T08:40:58;5.00;99.90
15003;DHT22;7597;53.590;10.020;2022-11-23T08:43:25;5.00;99.90
15003;DHT22;7597;53.590;10.020;2022-11-23T08:45:58;5.00;99.90
15003;DHT22;7597;53.590;10.020;2022-11-23T08:48:25;5.10;99.90
15003;DHT22;7597;53.590;10.020;2022-11-23T08:50:52;5.20;99.90
15003;DHT22;7597;53.590;10.020;2022-11-23T08:53:18;5.10;99.90
15003;DHT22;7597;53.590;10.020;2022-11-23T08:55:45;5.20;99.90
15003;DHT22;7597;53.590;10.020;2022-11-23T08:58:11;5.20;99.90
15003;DHT22;7597;53.590;10.020;2022-11-23T09:00:38;5.20;99.90
15003;DHT22;7597;53.590;10.020;2022-11-23T09:03:05;5.20;99.90
15003;DHT22;7597;53.590;10.020;2022-11-23T09:05:31;5.20;99.90
15003;DHT22;7597;53.590;10.020;2022-11-23T09:07:59;5.30;99.90
15003;DHT22;7597;53.590;10.020;2022-11-23T09:10:25;5.30;99.90
15003;DHT22;7597;53.590;10.020;2022-11-23T09:12:52;5.30;99.90
15003;DHT22;7597;53.590;10.020;2022-11-23T09:15:19;5.40;99.90
15003;DHT22;7597;53.590;10.020;2022-11-23T09:17:46;5.40;99.90
15003;DHT22;7597;53.590;10.020;2022-11-23T09:20:12;5.50;99.90
15003;DHT22;7597;53.590;10.020;2022-11-23T09:22:40;5.90;99.90
15003;DHT22;7597;53.590;10.020;2022-11-23T09:25:07;5.90;99.90
15003;DHT22;7597;53.590;10.020;2022-11-23T09:27:34;6.00;99.90
15003;DHT22;7597;53.590;10.020;2022-11-23T09:30:01;6.20;99.90
15003;DHT22;7597;53.590;10.020;2022-11-23T09:32:27;6.70;99.90
15003;DHT22;7597;53.590;10.020;2022-11-23T09:34:54;7.60;70.80
15003;DHT22;7597;53.590;10.020;2022-11-23T09:37:21;8.60;1.00
15003;DHT22;7597;53.590;10.020;2022-11-23T09:39:47;8.70;1.00
15003;DHT22;7597;53.590;10.020;2022-11-23T09:45:10;7.70;1.00
15003;DHT22;7597;53.590;10.020;2022-11-23T09:47:52;7.60;1.00
15003;DHT22;7597;53.590;10.020;2022-11-23T09:50:23;7.50;1.00
15003;DHT22;7597;53.590;10.020;2022-11-23T09:52:47;7.50;1.00
15003;DHT22;7597;53.590;10.020;2022-11-23T09:55:20;7.50;1.00
15003;DHT22;7597;53.590;10.020;2022-11-23T09:57:45;7.70;1.00
15003;DHT22;7597;53.590;10.020;2022-11-23T10:00:16;7.80;1.00
15003;DHT22;7597;53.590;10.020;2022-11-23T10:02:42;7.50;1.00
15003;DHT22;7597;53.590;10.020;2022-11-23T10:05:11;7.40;1.00
15003;DHT22;7597;53.590;10.020;2022-11-23T10:07:43;7.40;1.00
15003;DHT22;7597;53.590;10.020;2022-11-23T10:10:17;7.40;1.00
15003;DHT22;7597;53.590;10.020;2022-11-23T10:12:45;7.40;1.00
15003;DHT22;7597;53.590;10.020;2022-11-23T10:15:12;7.30;1.00
15003;DHT22;7597;53.590;10.020;2022-11-23T10:20:36;7.40;1.00
15003;DHT22;7597;53.590;10.020;2022-11-23T10:23:00;7.80;1.00
15003;DHT22;7597;53.590;10.020;2022-11-23T10:25:30;7.80;1.00
15003;DHT22;7597;53.590;10.020;2022-11-23T10:27:57;7.60;1.00
15003;DHT22;7597;53.590;10.020;2022-11-23T10:30:22;7.70;1.00
15003;DHT22;7597;53.590;10.020;2022-11-23T10:32:54;7.70;1.00
15003;DHT22;7597;53.590;10.020;2022-11-23T10:35:34;7.80;1.00
15003;DHT22;7597;53.590;10.020;2022-11-23T10:38:20;7.70;1.00
15003;DHT22;7597;53.590;10.020;2022-11-23T10:40:57;7.60;1.00
15003;DHT22;7597;53.590;10.020;2022-11-23T10:43:22;7.60;1.00
15003;DHT22;7597;53.590;10.020;2022-11-23T10:45:48;7.60;1.00
15003;DHT22;7597;53.590;10.020;2022-11-23T10:50:47;7.80;1.00
15003;DHT22;7597;53.590;10.020;2022-11-23T10:53:20;7.90;1.00
15003;DHT22;7597;53.590;10.020;2022-11-23T10:55:50;8.00;1.00
15003;DHT22;7597;53.590;10.020;2022-11-23T10:58:24;7.90;1.00
15003;DHT22;7597;53.590;10.020;2022-11-23T11:00:53;8.00;1.00
15003;DHT22;7597;53.590;10.020;2022-11-23T11:03:21;7.80;1.00
15003;DHT22;7597;53.590;10.020;2022-11-23T11:05:48;7.80;1.00
15003;DHT22;7597;53.590;10.020;2022-11-23T11:08:16;7.70;1.00
15003;DHT22;7597;53.590;10.020;2022-11-23T11:10:42;7.70;1.00
15003;DHT22;7597;53.590;10.020;2022-11-23T11:13:19;7.60;1.00
15003;DHT22;7597;53.590;10.020;2022-11-23T11:15:52;7.50;1.00
15003;DHT22;7597;53.590;10.020;2022-11-23T11:18:18;7.50;1.00
15003;DHT22;7597;53.590;10.020;2022-11-23T11:20:45;7.50;1.00
15003;DHT22;7597;53.590;10.020;2022-11-23T11:23:17;7.60;1.00
15003;DHT22;7597;53.590;10.020;2022-11-23T11:25:43;7.70;1.00
15003;DHT22;7597;53.590;10.020;2022-11-23T11:28:26;7.70;1.00
15003;DHT22;7597;53.590;10.020;2022-11-23T11:33:45;7.50;1.00
15003;DHT22;7597;53.590;10.020;2022-11-23T11:36:10;7.50;1.00
15003;DHT22;7597;53.590;10.020;2022-11-23T11:38:37;7.50;1.00
15003;DHT22;7597;53.590;10.020;2022-11-23T11:41:07;7.50;1.00
15003;DHT22;7597;53.590;10.020;2022-11-23T11:43:35;7.40;1.00
15003;DHT22;7597;53.590;10.020;2022-11-23T11:46:04;7.40;1.00
15003;DHT22;7597;53.590;10.020;2022-11-23T11:48:32;7.50;1.00
15003;DHT22;7597;53.590;10.020;2022-11-23T11:51:05;7.70;1.00
15003;DHT22;7597;53.590;10.020;2022-11-23T11:53:53;7.70;1.00
15003;DHT22;7597;53.590;10.020;2022-11-23T11:56:28;7.70;1.00
15003;DHT22;7597;53.590;10.020;2022-11-23T11:58:54;7.70;1.00
15003;DHT22;7597;53.590;10.020;2022-11-23T12:01:35;7.80;1.00
15003;DHT22;7597;53.590;10.020;2022-11-23T12:04:05;7.70;1.00
15003;DHT22;7597;53.590;10.020;2022-11-23T12:06:34;7.70;8.40
15003;DHT22;7597;53.590;10.020;2022-11-23T12:09:02;7.80;26.80
15003;DHT22;7597;53.590;10.020;2022-11-23T12:11:28;8.00;45.60
15003;DHT22;7597;53.590;10.020;2022-11-23T12:13:58;8.20;22.60
15003;DHT22;7597;53.590;10.020;2022-11-23T12:16:33;8.10;1.00
15003;DHT22;7597;53.590;10.020;2022-11-23T12:19:20;8.10;1.00
15003;DHT22;7597;53.590;10.020;2022-11-23T12:21:59;8.40;8.80
15003;DHT22;7597;53.590;10.020;2022-11-23T12:27:07;8.40;1.00
15003;DHT22;7597;53.590;10.020;2022-11-23T12:32:25;8.10;1.00
15003;DHT22;7597;53.590;10.020;2022-11-23T12:36:18;8.20;1.00
15003;DHT22;7597;53.590;10.020;2022-11-23T12:37:53;8.40;1.00
15003;DHT22;7597;53.590;10.020;2022-11-23T12:40:22;8.70;1.00
15003;DHT22;7597;53.590;10.020;2022-11-23T12:42:48;9.00;1.00
15003;DHT22;7597;53.590;10.020;2022-11-23T12:45:43;9.10;1.00
15003;DHT22;7597;53.590;10.020;2022-11-23T12:48:20;9.20;1.00
15003;DHT22;7597;53.590;10.020;2022-11-23T12:50:52;9.20;1.00
15003;DHT22;7597;53.590;10.020;2022-11-23T12:56:13;8.60;1.00
15003;DHT22;7597;53.590;10.020;2022-11-23T12:58:37;8.70;1.00
15003;DHT22;7597;53.590;10.020;2022-11-23T13:01:12;8.60;1.00
15003;DHT22;7597;53.590;10.020;2022-11-23T13:06:29;8.60;1.00
15003;DHT22;7597;53.590;10.020;2022-11-23T13:09:03;8.60;1.00
15003;DHT22;7597;53.590;10.020;2022-11-23T13:11:52;8.40;1.00
15003;DHT22;7597;53.590;10.020;2022-11-23T13:14:34;8.40;1.00
15003;DHT22;7597;53.590;10.020;2022-11-23T13:22:31;8.30;1.00
15003;DHT22;7597;53.590;10.020;2022-11-23T13:25:18;8.30;1.00
15003;DHT22;7597;53.590;10.020;2022-11-23T13:27:56;8.30;1.00
15003;DHT22;7597;53.590;10.020;2022-11-23T13:30:29;8.30;1.00
15003;DHT22;7597;53.590;10.020;2022-11-23T13:32:59;8.30;1.00
15003;DHT22;7597;53.590;10.020;2022-11-23T13:35:50;8.30;1.00
15003;DHT22;7597;53.590;10.020;2022-11-23T13:38:17;8.30;1.00
15003;DHT22;7597;53.590;10.020;2022-11-23T13:40:44;8.30;1.00
15003;DHT22;7597;53.590;10.020;2022-11-23T13:43:15;8.30;1.00
15003;DHT22;7597;53.590;10.020;2022-11-23T13:45:41;8.30;1.00
15003;DHT22;7597;53.590;10.020;2022-11-23T13:48:16;8.30;1.00
15003;DHT22;7597;53.590;10.020;2022-11-23T13:50:56;8.30;1.00
15003;DHT22;7597;53.590;10.020;2022-11-23T13:53:31;8.30;1.00
15003;DHT22;7597;53.590;10.020;2022-11-23T13:56:16;8.40;1.00
15003;DHT22;7597;53.590;10.020;2022-11-23T13:58:48;8.30;1.00
15003;DHT22;7597;53.590;10.020;2022-11-23T14:01:09;8.30;1.00
15003;DHT22;7597;53.590;10.020;2022-11-23T14:03:45;8.30;1.00
15003;DHT22;7597;53.590;10.020;2022-11-23T14:06:41;8.30;1.00
15003;DHT22;7597;53.590;10.020;2022-11-23T14:14:33;8.20;1.00
15003;DHT22;7597;53.590;10.020;2022-11-23T14:17:11;8.20;1.00
15003;DHT22;7597;53.590;10.020;2022-11-23T14:22:11;8.20;1.00
15003;DHT22;7597;53.590;10.020;2022-11-23T14:24:45;8.20;1.00
15003;DHT22;7597;53.590;10.020;2022-11-23T14:27:32;8.20;1.00
15003;DHT22;7597;53.590;10.020;2022-11-23T14:30:03;8.20;1.00
15003;DHT22;7597;53.590;10.020;2022-11-23T14:32:40;8.20;1.00
15003;DHT22;7597;53.590;10.020;2022-11-23T14:35:16;8.20;1.00
15003;DHT22;7597;53.590;10.020;2022-11-23T14:37:54;8.20;1.00
15003;DHT22;7597;53.590;10.020;2022-11-23T14:40:31;8.20;1.00
15003;DHT22;7597;53.590;10.020;2022-11-23T14:42:56;8.20;1.00
15003;DHT22;7597;53.590;10.020;2022-11-23T14:45:28;8.20;1.00
15003;DHT22;7597;53.590;10.020;2022-11-23T14:47:49;8.20;1.00
15003;DHT22;7597;53.590;10.020;2022-11-23T14:50:24;8.20;1.00
15003;DHT22;7597;53.590;10.020;2022-11-23T14:52:49;8.20;1.00
15003;DHT22;7597;53.590;10.020;2022-11-23T14:55:22;8.10;1.00
15003;DHT22;7597;53.590;10.020;2022-11-23T14:57:50;7.90;1.00
15003;DHT22;7597;53.590;10.020;2022-11-23T15:00:24;7.90;1.00
15003;DHT22;7597;53.590;10.020;2022-11-23T15:02:49;7.80;1.00
15003;DHT22;7597;53.590;10.020;2022-11-23T15:05:17;7.80;1.00
15003;DHT22;7597;53.590;10.020;2022-11-23T15:07:47;7.70;1.00
15003;DHT22;7597;53.590;10.020;2022-11-23T15:10:29;7.70;1.00
15003;DHT22;7597;53.590;10.020;2022-11-23T15:12:53;7.50;1.00
15003;DHT22;7597;53.590;10.020;2022-11-23T15:15:22;7.40;1.00
15003;DHT22;7597;53.590;10.020;2022-11-23T15:17:53;7.30;1.00
15003;DHT22;7597;53.590;10.020;2022-11-23T15:20:19;7.20;1.00
15003;DHT22;7597;53.590;10.020;2022-11-23T15:22:45;7.10;1.00
15003;DHT22;7597;53.590;10.020;2022-11-23T15:25:13;7.10;1.00
15003;DHT22;7597;53.590;10.020;2022-11-23T15:27:39;7.00;1.00
15003;DHT22;7597;53.590;10.020;2022-11-23T15:30:13;6.90;2.40
15003;DHT22;7597;53.590;10.020;2022-11-23T15:32:34;7.20;6.20
15003;DHT22;7597;53.590;10.020;2022-11-23T15:35:03;6.70;22.50
15003;DHT22;7597;53.590;10.020;2022-11-23T15:37:28;6.70;24.60
15003;DHT22;7597;53.590;10.020;2022-11-23T15:39:56;6.60;35.60
15003;DHT22;7597;53.590;10.020;2022-11-23T15:42:23;6.60;36.50
15003;DHT22;7597;53.590;10.020;2022-11-23T15:44:49;6.60;42.90
15003;DHT22;7597;53.590;10.020;2022-11-23T15:47:19;6.50;53.10
15003;DHT22;7597;53.590;10.020;2022-11-23T15:49:44;6.40;57.70
15003;DHT22;7597;53.590;10.020;2022-11-23T15:52:12;6.40;68.10
15003;DHT22;7597;53.590;10.020;2022-11-23T15:54:39;6.30;78.40
15003;DHT22;7597;53.590;10.020;2022-11-23T15:57:07;6.30;79.50
15003;DHT22;7597;53.590;10.020;2022-11-23T15:59:49;6.30;83.50
15003;DHT22;7597;53.590;10.020;2022-11-23T16:02:20;6.20;84.80
15003;DHT22;7597;53.590;10.020;2022-11-23T16:04:43;6.20;90.20
15003;DHT22;7597;53.590;10.020;2022-11-23T16:07:17;6.10;91.60
15003;DHT22;7597;53.590;10.020;2022-11-23T16:09:43;6.10;93.40
15003;DHT22;7597;53.590;10.020;2022-11-23T16:12:26;6.00;94.40
15003;DHT22;7597;53.590;10.020;2022-11-23T16:14:55;6.00;94.90
15003;DHT22;7597;53.590;10.020;2022-11-23T16:17:26;6.00;97.90
15003;DHT22;7597;53.590;10.020;2022-11-23T16:19:53;5.90;98.30
15003;DHT22;7597;53.590;10.020;2022-11-23T16:22:21;5.90;99.50
15003;DHT22;7597;53.590;10.020;2022-11-23T16:24:46;5.80;99.90
15003;DHT22;7597;53.590;10.020;2022-11-23T16:27:13;5.40;99.90
15003;DHT22;7597;53.590;10.020;2022-11-23T16:29:39;5.80;99.90
15003;DHT22;7597;53.590;10.020;2022-11-23T16:32:18;5.80;99.90
15003;DHT22;7597;53.590;10.020;2022-11-23T16:34:32;5.80;99.90